createdAt,value
2023-05-10T00:03:20.348Z,1.65
2023-05-10T00:08:19.179Z,2.00
2023-05-10T00:13:17.944Z,1.50
2023-05-10T00:18:16.735Z,1.67
2023-05-10T00:23:15.794Z,1.80
2023-05-10T00:28:14.724Z,1.80
2023-05-10T00:33:13.616Z,2.00
2023-05-10T00:38:12.430Z,1.60
2023-05-10T00:43:11.283Z,1.85
2023-05-10T00:48:10.370Z,1.50
2023-05-10T00:53:10.286Z,2.08
2023-05-10T00:58:10.176Z,1.58
2023-05-10T01:03:09.101Z,1.40
2023-05-10T01:08:09.841Z,1.92
2023-05-10T01:13:08.899Z,1.65
2023-05-10T01:18:09.763Z,1.52
2023-05-10T01:23:47.546Z,1.67
2023-05-10T01:29:00.549Z,1.85
2023-05-10T01:34:07.351Z,1.77
2023-05-10T01:39:39.323Z,1.88
2023-05-10T01:44:47.590Z,1.40
2023-05-10T01:49:53.071Z,1.65
2023-05-10T01:55:04.068Z,1.80
2023-05-10T02:00:05.688Z,1.70
2023-05-10T02:05:15.448Z,1.80
2023-05-10T02:10:15.733Z,1.80
2023-05-10T02:15:20.228Z,1.70
2023-05-10T02:20:20.407Z,1.98
2023-05-10T02:25:23.146Z,1.50
2023-05-10T02:30:24.027Z,1.48
2023-05-10T02:35:24.180Z,1.80
2023-05-10T02:40:26.175Z,1.95
2023-05-10T02:45:31.534Z,1.90
2023-05-10T02:50:33.547Z,1.92
2023-05-10T02:55:39.007Z,1.85
2023-05-10T03:00:38.048Z,1.52
2023-05-10T03:05:36.857Z,1.80
2023-05-10T03:11:18.701Z,1.50
2023-05-10T03:16:28.372Z,1.55
2023-05-10T03:21:31.035Z,1.70
2023-05-10T03:26:30.901Z,2.35
2023-05-10T03:31:41.992Z,1.80
2023-05-10T03:36:41.100Z,2.05
2023-05-10T03:41:39.973Z,1.98
2023-05-10T03:46:38.823Z,2.03
2023-05-10T03:51:37.799Z,1.90
2023-05-10T03:56:36.953Z,1.70
2023-05-10T04:01:36.449Z,1.40
2023-05-10T04:06:36.351Z,2.00
2023-05-10T04:11:35.277Z,2.10
2023-05-10T04:16:34.059Z,1.48
2023-05-10T04:21:32.914Z,1.80
2023-05-10T04:26:32.410Z,1.50
2023-05-10T04:31:31.306Z,1.60
2023-05-10T04:36:30.420Z,1.70
2023-05-10T04:41:29.633Z,1.70
2023-05-10T04:46:28.532Z,1.52
2023-05-10T04:51:27.396Z,1.85
2023-05-10T04:56:28.059Z,2.65
2023-05-10T05:01:26.983Z,1.60
2023-05-10T05:06:26.281Z,1.58
2023-05-10T05:11:26.570Z,1.92
2023-05-10T05:16:25.729Z,1.40
2023-05-10T05:21:25.037Z,1.60
2023-05-10T05:26:24.016Z,1.77
2023-05-10T05:31:23.192Z,1.77
2023-05-10T05:36:22.344Z,1.50
2023-05-10T05:41:22.523Z,1.50
2023-05-10T05:46:21.347Z,1.70
2023-05-10T05:51:20.191Z,1.67
2023-05-10T05:56:25.089Z,1.63
2023-05-10T06:01:23.900Z,1.85
2023-05-10T06:06:22.936Z,1.75
2023-05-10T06:11:24.943Z,1.85
2023-05-10T06:16:23.787Z,1.50
2023-05-10T06:21:22.623Z,2.00
2023-05-10T06:26:21.942Z,1.90
2023-05-10T06:31:20.673Z,1.90
2023-05-10T06:36:19.621Z,1.83
2023-05-10T06:41:18.509Z,1.73
2023-05-10T06:46:17.336Z,2.00
2023-05-10T06:51:16.400Z,1.92
2023-05-10T06:56:15.281Z,2.13
2023-05-10T07:01:14.146Z,1.83
2023-05-10T07:06:21.596Z,2.13
2023-05-10T07:11:24.765Z,1.77
2023-05-10T07:16:23.809Z,3.67
2023-05-10T07:21:27.374Z,2.38
2023-05-10T07:26:26.317Z,2.28
2023-05-10T07:31:25.091Z,1.75
2023-05-10T07:36:24.021Z,2.00
2023-05-10T07:41:23.625Z,2.00
2023-05-10T07:46:22.613Z,2.30
2023-05-10T07:51:21.403Z,2.25
2023-05-10T07:56:23.760Z,1.98
2023-05-10T08:01:23.653Z,1.98
2023-05-10T08:06:22.561Z,2.28
2023-05-10T08:11:23.716Z,2.00
2023-05-10T08:16:25.817Z,2.55
2023-05-10T08:21:24.875Z,2.42
2023-05-10T08:26:23.730Z,2.30
2023-05-10T08:31:22.628Z,2.28
2023-05-10T08:36:22.961Z,2.00
2023-05-10T08:41:22.664Z,2.45
2023-05-10T08:46:23.454Z,2.17
2023-05-10T08:51:30.926Z,3.08
2023-05-10T08:56:30.762Z,2.60
2023-05-10T09:01:31.833Z,2.05
2023-05-10T09:06:30.928Z,2.47
2023-05-10T09:11:31.004Z,2.63
2023-05-10T09:16:29.979Z,2.70
2023-05-10T09:21:28.836Z,2.28
2023-05-10T09:26:27.811Z,2.00
2023-05-10T09:31:57.323Z,2.47
2023-05-10T09:36:58.633Z,2.50
2023-05-10T09:41:58.697Z,2.63
2023-05-10T09:46:58.100Z,2.47
2023-05-10T09:52:08.316Z,3.08
2023-05-10T09:57:19.460Z,2.40
2023-05-10T10:02:18.734Z,2.70
2023-05-10T10:07:24.491Z,3.13
2023-05-10T10:12:23.330Z,3.17
2023-05-10T10:17:22.790Z,2.90
2023-05-10T10:22:21.611Z,3.05
2023-05-10T10:27:20.405Z,2.67
2023-05-10T10:32:54.391Z,2.72
2023-05-10T10:37:53.324Z,2.53
2023-05-10T10:42:53.062Z,2.50
2023-05-10T10:48:21.236Z,2.60
2023-05-10T10:53:20.162Z,2.78
2023-05-10T10:58:52.209Z,2.75
2023-05-10T11:04:00.104Z,2.65
2023-05-10T11:08:59.458Z,2.80
2023-05-10T11:14:05.574Z,3.25
2023-05-10T11:19:08.724Z,3.17
2023-05-10T11:24:14.920Z,3.22
2023-05-10T11:29:14.756Z,2.60
2023-05-10T11:34:25.406Z,3.08
2023-05-10T11:39:29.148Z,3.05
2023-05-10T11:44:32.647Z,3.10
2023-05-10T11:49:31.559Z,2.65
2023-05-10T11:54:30.339Z,2.92
2023-05-10T11:59:29.113Z,2.90
2023-05-10T12:04:30.560Z,2.80
2023-05-10T12:09:42.653Z,3.15
2023-05-10T12:14:42.663Z,3.53
2023-05-10T12:19:42.550Z,2.83
2023-05-10T12:24:41.594Z,2.90
2023-05-10T12:29:45.592Z,2.97
2023-05-10T12:34:47.862Z,2.80
2023-05-10T12:39:47.299Z,2.72
2023-05-10T12:44:46.164Z,3.00
2023-05-10T12:49:45.005Z,3.13
2023-05-10T12:54:43.764Z,2.55
2023-05-10T12:59:42.609Z,2.83
2023-05-10T13:04:42.868Z,2.95
2023-05-10T13:09:44.525Z,2.58
2023-05-10T13:14:49.350Z,2.45
2023-05-10T13:19:48.253Z,2.88
2023-05-10T13:24:47.145Z,2.83
2023-05-10T13:29:47.070Z,2.58
2023-05-10T13:34:47.541Z,3.13
2023-05-10T13:39:46.354Z,2.28
2023-05-10T13:44:45.554Z,2.75
2023-05-10T13:49:44.583Z,2.22
2023-05-10T13:54:43.470Z,2.45
2023-05-10T13:59:42.543Z,2.70
2023-05-10T14:04:46.253Z,2.97
2023-05-10T14:09:45.403Z,2.90
2023-05-10T14:14:44.497Z,2.60
2023-05-10T14:19:43.441Z,2.50
2023-05-10T14:24:42.347Z,2.65
2023-05-10T14:29:41.097Z,2.10
2023-05-10T14:34:40.206Z,2.30
2023-05-10T14:39:39.295Z,2.67
2023-05-10T14:44:38.332Z,2.30
2023-05-10T14:49:37.288Z,2.72
2023-05-10T14:54:36.321Z,2.53
2023-05-10T14:59:35.414Z,2.83
2023-05-10T15:04:34.766Z,2.40
2023-05-10T15:09:34.263Z,2.53
2023-05-10T15:14:33.959Z,2.78
2023-05-10T15:19:34.322Z,2.35
2023-05-10T15:24:33.108Z,2.50
2023-05-10T15:29:32.519Z,2.70
2023-05-10T15:34:33.184Z,2.45
2023-05-10T15:39:33.383Z,2.75
2023-05-10T15:44:32.132Z,2.20
2023-05-10T15:49:31.147Z,2.50
2023-05-10T15:54:30.176Z,2.58
2023-05-10T15:59:29.419Z,2.33
2023-05-10T16:04:28.327Z,2.72
2023-05-10T16:09:27.179Z,2.70
2023-05-10T16:14:26.196Z,2.42
2023-05-10T16:19:25.479Z,2.42
2023-05-10T16:24:26.178Z,2.47
2023-05-10T16:29:25.320Z,3.03
2023-05-10T16:34:25.444Z,3.13
2023-05-10T16:39:24.511Z,2.45
2023-05-10T16:44:25.686Z,2.40
2023-05-10T16:49:26.216Z,2.63
2023-05-10T16:54:26.085Z,2.72
2023-05-10T16:59:24.889Z,2.35
2023-05-10T17:04:23.878Z,3.30
2023-05-10T17:09:22.680Z,2.60
2023-05-10T17:14:21.739Z,2.78
2023-05-10T17:19:20.798Z,3.65
2023-05-10T17:24:19.559Z,2.20
2023-05-10T17:29:18.324Z,2.50
2023-05-10T17:34:17.385Z,2.35
2023-05-10T17:39:16.164Z,2.70
2023-05-10T17:44:15.786Z,2.40
2023-05-10T17:49:15.338Z,2.63
2023-05-10T17:54:14.950Z,2.97
2023-05-10T17:59:13.823Z,2.65
2023-05-10T18:04:12.704Z,2.67
2023-05-10T18:09:11.835Z,2.45
2023-05-10T18:14:10.807Z,2.60
2023-05-10T18:19:10.153Z,2.42
2023-05-10T18:24:09.272Z,2.58
2023-05-10T18:29:08.502Z,2.33
2023-05-10T18:34:07.464Z,2.28
2023-05-10T18:39:06.270Z,2.20
2023-05-10T18:44:05.178Z,1.85
2023-05-10T18:49:04.014Z,1.98
2023-05-10T18:54:02.902Z,1.70
2023-05-10T18:59:01.683Z,2.13
2023-05-10T19:04:00.673Z,1.90
2023-05-10T19:09:00.004Z,2.13
2023-05-10T19:13:58.829Z,1.98
2023-05-10T19:18:58.038Z,1.38
2023-05-10T19:23:57.856Z,1.60
2023-05-10T19:28:57.677Z,1.50
2023-05-10T19:33:59.950Z,1.63
2023-05-10T19:38:59.741Z,1.92
2023-05-10T19:43:59.102Z,1.70
2023-05-10T19:49:02.078Z,2.00
2023-05-10T19:54:01.194Z,1.45
2023-05-10T19:59:00.184Z,2.00
2023-05-10T20:03:59.042Z,2.25
2023-05-10T20:08:57.835Z,1.98
2023-05-10T20:13:57.054Z,1.80
2023-05-10T20:18:55.983Z,2.00
2023-05-10T20:23:54.807Z,2.10
2023-05-10T20:28:53.587Z,2.42
2023-05-10T20:33:52.387Z,2.13
2023-05-10T20:38:51.161Z,1.95
2023-05-10T20:43:49.963Z,2.30
2023-05-10T20:48:48.897Z,2.10
2023-05-10T20:53:47.660Z,1.92
2023-05-10T20:58:46.437Z,4.63
2023-05-10T21:03:45.400Z,2.95
2023-05-10T21:08:44.290Z,2.30
2023-05-10T21:13:43.022Z,2.38
2023-05-10T21:18:41.865Z,2.35
2023-05-10T21:23:42.303Z,2.20
2023-05-10T21:28:42.410Z,2.13
2023-05-10T21:33:41.366Z,2.53
2023-05-10T21:38:40.980Z,2.13
2023-05-10T21:43:39.799Z,2.58
2023-05-10T21:48:38.748Z,2.50
2023-05-10T21:53:39.091Z,2.78
2023-05-10T21:58:38.144Z,2.45
2023-05-10T22:03:36.933Z,3.47
2023-05-10T22:08:35.700Z,2.90
2023-05-10T22:13:34.420Z,3.13
2023-05-10T22:18:33.394Z,3.00
2023-05-10T22:23:32.192Z,3.00
2023-05-10T22:28:30.984Z,3.25
2023-05-10T22:33:30.897Z,3.13
2023-05-10T22:38:29.748Z,2.72
2023-05-10T22:43:28.475Z,3.20
2023-05-10T22:48:28.829Z,3.40
2023-05-10T22:53:27.684Z,3.53
2023-05-10T22:58:26.721Z,3.70
2023-05-10T23:03:25.931Z,3.33
2023-05-10T23:08:24.725Z,3.40
2023-05-10T23:13:24.625Z,3.25
2023-05-10T23:18:23.497Z,3.53
2023-05-10T23:23:22.796Z,3.20
2023-05-10T23:28:21.692Z,3.45
2023-05-10T23:33:20.391Z,3.00
2023-05-10T23:38:19.331Z,3.70
2023-05-10T23:43:19.895Z,4.55
2023-05-10T23:48:18.759Z,4.20
2023-05-10T23:53:17.491Z,4.35
2023-05-10T23:58:16.433Z,4.70
